createdAt,value
2023-01-08T00:02:19.766Z,6.23
2023-01-08T00:12:44.302Z,6.10
2023-01-08T00:23:11.334Z,6.05
2023-01-08T00:33:36.107Z,6.03
2023-01-08T00:44:00.459Z,5.99
2023-01-08T00:54:24.703Z,5.91
2023-01-08T01:04:48.870Z,5.83
2023-01-08T01:15:15.655Z,5.76
2023-01-08T01:25:39.880Z,5.53
2023-01-08T01:36:05.247Z,5.34
2023-01-08T01:46:37.956Z,5.25
2023-01-08T01:57:02.707Z,5.11
2023-01-08T02:07:36.547Z,4.89
2023-01-08T02:18:07.910Z,4.66
2023-01-08T02:28:36.769Z,4.64
2023-01-08T02:39:28.809Z,4.76
2023-01-08T02:50:00.980Z,4.71
2023-01-08T03:00:26.471Z,4.60
2023-01-08T03:11:02.948Z,4.43
2023-01-08T03:21:28.202Z,4.37
2023-01-08T03:31:57.005Z,4.15
2023-01-08T03:42:21.646Z,4.09
2023-01-08T03:52:45.962Z,4.01
2023-01-08T04:03:10.221Z,4.00
2023-01-08T04:13:34.378Z,3.86
2023-01-08T04:23:58.589Z,3.82
2023-01-08T04:34:22.785Z,3.72
2023-01-08T04:45:33.409Z,3.73
2023-01-08T04:56:06.098Z,3.72
2023-01-08T05:06:34.750Z,3.58
2023-01-08T05:17:00.728Z,3.41
2023-01-08T05:27:29.119Z,3.40
2023-01-08T05:37:56.717Z,3.38
2023-01-08T05:48:24.214Z,3.36
2023-01-08T05:58:54.685Z,3.37
2023-01-08T06:09:22.596Z,3.50
2023-01-08T06:19:50.216Z,3.51
2023-01-08T06:30:18.041Z,3.43
2023-01-08T06:40:45.665Z,3.37
2023-01-08T06:51:13.336Z,3.28
2023-01-08T07:01:41.005Z,3.25
2023-01-08T07:12:12.957Z,3.29
2023-01-08T07:22:40.700Z,3.22
2023-01-08T07:33:08.971Z,3.15
2023-01-08T07:43:37.211Z,3.15
2023-01-08T07:54:05.689Z,3.25
2023-01-08T08:04:33.201Z,3.42
2023-01-08T08:15:00.816Z,3.64
2023-01-08T08:25:28.365Z,3.90
2023-01-08T08:35:55.855Z,4.12
2023-01-08T08:46:25.464Z,4.33
2023-01-08T08:56:53.062Z,4.49
2023-01-08T09:07:20.679Z,4.55
2023-01-08T09:17:53.312Z,4.68
2023-01-08T09:28:20.836Z,4.86
2023-01-08T09:38:48.640Z,5.10
2023-01-08T09:49:22.662Z,4.80
2023-01-08T09:59:51.611Z,4.36
2023-01-08T10:10:23.071Z,4.38
2023-01-08T10:20:51.238Z,4.64
2023-01-08T10:31:19.777Z,5.16
2023-01-08T10:41:48.900Z,5.66
2023-01-08T10:52:28.959Z,5.89
2023-01-08T11:02:57.560Z,6.17
2023-01-08T11:13:24.842Z,6.45
2023-01-08T11:24:06.407Z,6.65
2023-01-08T11:34:40.637Z,6.36
2023-01-08T11:45:21.141Z,6.28
2023-01-08T11:56:03.266Z,6.43
2023-01-08T12:06:41.081Z,6.61
2023-01-08T12:17:30.955Z,6.64
2023-01-08T12:28:19.436Z,6.96
2023-01-08T12:38:58.979Z,7.17
2023-01-08T12:49:34.115Z,7.55
2023-01-08T13:00:07.543Z,7.88
2023-01-08T13:10:40.756Z,8.08
2023-01-08T13:21:12.430Z,8.14
2023-01-08T13:31:43.344Z,8.32
2023-01-08T13:42:28.532Z,8.39
2023-01-08T13:53:00.863Z,8.47
2023-01-08T14:03:30.444Z,8.43
2023-01-08T14:13:58.705Z,8.36
2023-01-08T14:24:28.849Z,8.04
2023-01-08T14:34:55.571Z,7.90
2023-01-08T14:45:25.721Z,7.79
2023-01-08T14:55:55.984Z,7.55
2023-01-08T15:06:30.498Z,7.24
2023-01-08T15:17:01.043Z,7.12
2023-01-08T15:27:31.375Z,7.10
2023-01-08T15:37:58.858Z,6.86
2023-01-08T15:48:26.387Z,6.60
2023-01-08T15:58:54.221Z,6.53
2023-01-08T16:09:21.724Z,6.42
2023-01-08T16:19:49.208Z,6.24
2023-01-08T16:30:17.640Z,6.15
2023-01-08T16:40:45.158Z,6.02
2023-01-08T16:51:13.779Z,5.96
2023-01-08T17:01:41.367Z,6.00
2023-01-08T17:12:09.726Z,5.93
2023-01-08T17:22:37.806Z,5.95
2023-01-08T17:33:05.577Z,6.02
2023-01-08T17:43:36.731Z,6.13
2023-01-08T17:54:04.441Z,6.13
2023-01-08T18:04:33.197Z,6.01
2023-01-08T18:15:00.824Z,5.97
2023-01-08T18:25:28.428Z,6.05
2023-01-08T18:35:55.975Z,6.14
2023-01-08T18:46:23.499Z,6.16
2023-01-08T18:56:51.634Z,6.32
2023-01-08T19:07:20.170Z,6.29
2023-01-08T19:17:47.809Z,6.21
2023-01-08T19:28:15.417Z,6.36
2023-01-08T19:38:43.710Z,6.35
2023-01-08T19:49:12.053Z,6.44
2023-01-08T19:59:39.704Z,6.58
2023-01-08T20:10:08.782Z,6.63
2023-01-08T20:20:36.341Z,6.55
2023-01-08T20:31:10.240Z,6.55
2023-01-08T20:41:38.145Z,6.66
2023-01-08T20:52:06.426Z,6.74
2023-01-08T21:02:34.033Z,6.88
2023-01-08T21:13:01.667Z,6.92
2023-01-08T21:23:29.836Z,6.99
2023-01-08T21:33:59.431Z,6.96
2023-01-08T21:44:45.607Z,6.94
2023-01-08T21:55:16.954Z,6.94
2023-01-08T22:05:44.591Z,7.01
2023-01-08T22:16:12.871Z,7.02
2023-01-08T22:26:40.671Z,7.10
2023-01-08T22:37:08.253Z,7.09
2023-01-08T22:47:35.882Z,7.14
2023-01-08T22:58:03.429Z,7.01
2023-01-08T23:08:31.068Z,7.02
2023-01-08T23:18:59.070Z,7.10
2023-01-08T23:29:29.711Z,7.04
2023-01-08T23:39:57.232Z,6.87
2023-01-08T23:50:24.691Z,6.78
